Time,TemperatureF,DewpointF,PressureIn,WindDirection,WindDirectionDegrees,WindSpeedMPH,WindSpeedGustMPH,Humidity,HourlyPrecipIn,Conditions,Clouds,dailyrainin,SoftwareType,DateUTC
2013-06-08 00:03:00,66.0,61.0,29.73,North,360,0.0,0.0,83,0.00,,,0.12,,2013-06-08 04:03:00,
2013-06-08 00:13:00,66.0,61.0,29.73,North,360,0.0,0.0,83,0.00,,,0.12,,2013-06-08 04:13:00,
2013-06-08 00:23:00,66.0,61.0,29.73,North,360,0.0,1.0,83,0.00,,,0.12,,2013-06-08 04:23:00,
2013-06-08 00:33:00,66.0,61.0,29.73,North,360,0.0,2.0,83,0.00,,,0.12,,2013-06-08 04:33:00,
2013-06-08 00:42:00,66.0,61.0,29.73,North,360,0.0,2.0,83,0.00,,,0.12,,2013-06-08 04:42:00,
2013-06-08 00:53:00,66.0,61.0,29.74,North,360,0.0,1.0,83,0.00,,,0.12,,2013-06-08 04:53:00,
2013-06-08 01:02:00,67.0,62.0,29.74,North,360,0.0,0.0,83,0.00,,,0.12,,2013-06-08 05:02:00,
2013-06-08 01:12:00,67.0,62.0,29.74,North,360,0.0,0.0,83,0.00,,,0.12,,2013-06-08 05:12:00,
2013-06-08 01:22:00,67.0,62.0,29.73,North,360,1.0,2.0,83,0.00,,,0.12,,2013-06-08 05:22:00,
2013-06-08 01:32:00,67.0,62.0,29.74,North,360,1.0,3.0,83,0.00,,,0.12,,2013-06-08 05:32:00,
2013-06-08 01:42:00,67.0,62.0,29.74,North,360,1.0,3.0,83,0.00,,,0.12,,2013-06-08 05:42:00,
2013-06-08 01:53:00,67.0,61.0,29.74,North,360,0.0,2.0,82,0.00,,,0.12,,2013-06-08 05:53:00,
2013-06-08 02:02:00,67.0,61.0,29.74,North,360,0.0,2.0,82,0.00,,,0.12,,2013-06-08 06:02:00,
2013-06-08 02:13:00,67.0,61.0,29.74,North,360,0.0,2.0,82,0.00,,,0.12,,2013-06-08 06:13:00,
2013-06-08 02:22:00,67.0,61.0,29.75,North,360,1.0,2.0,82,0.00,,,0.12,,2013-06-08 06:22:00,
2013-06-08 02:32:00,67.0,61.0,29.75,NW,305,1.0,5.0,82,0.00,,,0.12,,2013-06-08 06:32:00,
2013-06-08 02:42:00,67.0,61.0,29.75,NW,305,1.0,5.0,82,0.00,,,0.12,,2013-06-08 06:42:00,
2013-06-08 02:53:00,67.0,61.0,29.75,WNW,299,2.0,4.0,81,0.00,,,0.12,,2013-06-08 06:53:00,
2013-06-08 03:02:00,67.0,61.0,29.75,NNW,329,3.0,8.0,80,0.00,,,0.12,,2013-06-08 07:02:00,
2013-06-08 03:12:00,67.0,61.0,29.75,NNW,329,3.0,8.0,80,0.00,,,0.12,,2013-06-08 07:12:00,
2013-06-08 03:22:00,67.0,60.0,29.75,NNW,329,2.0,5.0,79,0.00,,,0.12,,2013-06-08 07:22:00,
2013-06-08 03:32:00,67.0,60.0,29.76,NNW,336,1.0,5.0,77,0.00,,,0.12,,2013-06-08 07:32:00,
2013-06-08 03:42:00,67.0,60.0,29.76,NNW,336,1.0,5.0,77,0.00,,,0.12,,2013-06-08 07:42:00,
2013-06-08 03:52:00,67.0,60.0,29.77,NNW,336,1.0,4.0,77,0.00,,,0.12,,2013-06-08 07:52:00,
2013-06-08 04:02:00,67.0,60.0,29.78,NNW,336,0.0,3.0,78,0.00,,,0.12,,2013-06-08 08:02:00,
2013-06-08 04:12:00,67.0,60.0,29.78,NNW,336,0.0,3.0,78,0.00,,,0.12,,2013-06-08 08:12:00,
2013-06-08 04:22:00,67.0,60.0,29.78,NNW,336,1.0,3.0,78,0.00,,,0.11,,2013-06-08 08:22:00,
2013-06-08 04:32:00,67.0,59.0,29.79,NNW,331,2.0,4.0,76,0.00,,,0.11,,2013-06-08 08:32:00,
2013-06-08 04:42:00,67.0,59.0,29.79,NNW,331,2.0,4.0,76,0.00,,,0.11,,2013-06-08 08:42:00,
2013-06-08 04:53:00,67.0,58.0,29.80,WNW,292,2.0,6.0,74,0.00,,,0.11,,2013-06-08 08:53:00,
2013-06-08 05:02:00,67.0,59.0,29.81,WNW,292,2.0,3.0,75,0.00,,,0.11,,2013-06-08 09:02:00,
2013-06-08 05:12:00,67.0,59.0,29.81,WNW,292,2.0,3.0,75,0.00,,,0.11,,2013-06-08 09:12:00,
2013-06-08 05:22:00,66.0,59.0,29.82,West,273,1.0,4.0,77,0.00,,,0.10,,2013-06-08 09:22:00,
2013-06-08 05:33:00,66.0,58.0,29.83,WNW,282,1.0,5.0,76,0.00,,,0.10,,2013-06-08 09:33:00,
2013-06-08 05:43:00,66.0,58.0,29.83,WNW,282,1.0,5.0,76,0.00,,,0.10,,2013-06-08 09:43:00,
2013-06-08 05:53:00,66.0,57.0,29.83,WNW,285,3.0,6.0,73,0.00,,,0.10,,2013-06-08 09:53:00,
2013-06-08 06:03:00,66.0,56.0,29.85,WNW,292,1.0,6.0,71,0.00,,,0.10,,2013-06-08 10:03:00,
2013-06-08 06:12:00,66.0,56.0,29.85,WNW,292,1.0,6.0,71,0.00,,,0.10,,2013-06-08 10:12:00,
2013-06-08 06:22:00,65.0,56.0,29.85,NW,312,1.0,4.0,72,0.00,,,0.10,,2013-06-08 10:22:00,
2013-06-08 06:33:00,65.0,56.0,29.86,NW,323,1.0,5.0,74,0.00,,,0.10,,2013-06-08 10:33:00,
2013-06-08 06:43:00,65.0,56.0,29.86,NW,323,1.0,5.0,74,0.00,,,0.10,,2013-06-08 10:43:00,
2013-06-08 06:53:00,65.0,56.0,29.87,NW,322,0.0,2.0,74,0.00,,,0.10,,2013-06-08 10:53:00,
2013-06-08 07:02:00,65.0,56.0,29.87,NNE,22,0.0,0.0,74,0.00,,,0.10,,2013-06-08 11:02:00,
2013-06-08 07:12:00,65.0,56.0,29.87,NNE,22,0.0,0.0,74,0.00,,,0.10,,2013-06-08 11:12:00,
2013-06-08 07:22:00,65.0,57.0,29.87,NNE,22,0.0,0.0,75,0.00,,,0.10,,2013-06-08 11:22:00,
2013-06-08 07:32:00,65.0,57.0,29.88,NNE,22,0.0,0.0,76,0.00,,,0.10,,2013-06-08 11:32:00,
2013-06-08 07:42:00,65.0,57.0,29.88,NNE,22,0.0,0.0,76,0.00,,,0.10,,2013-06-08 11:42:00,
2013-06-08 07:52:00,65.0,57.0,29.88,NNE,19,0.0,2.0,75,0.00,,,0.10,,2013-06-08 11:52:00,
2013-06-08 08:02:00,66.0,58.0,29.89,NNE,19,0.0,1.0,75,0.00,,,0.10,,2013-06-08 12:02:00,
2013-06-08 08:12:00,66.0,58.0,29.89,NNE,19,0.0,1.0,75,0.00,,,0.10,,2013-06-08 12:12:00,
2013-06-08 08:22:00,66.0,57.0,29.89,NNE,19,0.0,2.0,74,0.00,,,0.10,,2013-06-08 12:22:00,
2013-06-08 08:32:00,66.0,57.0,29.90,NNE,19,2.0,3.0,73,0.00,,,0.10,,2013-06-08 12:32:00,
2013-06-08 08:42:00,66.0,57.0,29.90,NNE,19,2.0,3.0,73,0.00,,,0.10,,2013-06-08 12:42:00,
2013-06-08 08:52:00,67.0,58.0,29.91,WNW,300,1.0,5.0,73,0.00,,,0.10,,2013-06-08 12:52:00,
2013-06-08 09:02:00,67.0,57.0,29.91,NNW,335,3.0,9.0,70,0.00,,,0.10,,2013-06-08 13:02:00,
2013-06-08 09:12:00,67.0,57.0,29.91,NNW,335,3.0,9.0,70,0.00,,,0.10,,2013-06-08 13:12:00,
2013-06-08 09:22:00,67.0,57.0,29.92,NNW,338,1.0,6.0,71,0.00,,,0.10,,2013-06-08 13:22:00,
2013-06-08 09:32:00,67.0,57.0,29.93,NNW,336,2.0,8.0,71,0.00,,,0.10,,2013-06-08 13:32:00,
2013-06-08 09:42:00,67.0,57.0,29.93,NNW,336,2.0,8.0,71,0.00,,,0.10,,2013-06-08 13:42:00,
2013-06-08 09:52:00,67.0,57.0,29.93,NNW,331,2.0,12.0,71,0.00,,,0.10,,2013-06-08 13:52:00,
2013-06-08 10:02:00,67.0,58.0,29.94,NNW,336,2.0,9.0,72,0.00,,,0.10,,2013-06-08 14:02:00,
2013-06-08 10:12:00,67.0,58.0,29.94,NNW,336,2.0,9.0,72,0.00,,,0.10,,2013-06-08 14:12:00,
2013-06-08 10:22:00,67.0,57.0,29.95,WNW,301,2.0,6.0,70,0.00,,,0.08,,2013-06-08 14:22:00,
2013-06-08 10:32:00,67.0,57.0,29.96,WNW,297,2.0,4.0,71,0.00,,,0.08,,2013-06-08 14:32:00,
2013-06-08 10:42:00,67.0,57.0,29.96,WNW,297,2.0,4.0,71,0.00,,,0.08,,2013-06-08 14:42:00,
2013-06-08 10:52:00,67.0,58.0,29.96,WNW,297,2.0,4.0,72,0.00,,,0.08,,2013-06-08 14:52:00,
2013-06-08 11:02:00,67.0,57.0,29.94,NW,325,3.0,7.0,70,0.00,,,0.08,,2013-06-08 15:02:00,
2013-06-08 11:12:00,67.0,57.0,29.94,NW,325,3.0,7.0,70,0.00,,,0.08,,2013-06-08 15:12:00,
2013-06-08 11:22:00,68.0,58.0,29.95,NNW,338,4.0,9.0,70,0.00,,,0.07,,2013-06-08 15:22:00,
2013-06-08 11:32:00,68.0,57.0,29.95,NW,305,2.0,8.0,68,0.00,,,0.07,,2013-06-08 15:32:00,
2013-06-08 11:42:00,68.0,57.0,29.95,NW,305,2.0,8.0,68,0.00,,,0.07,,2013-06-08 15:42:00,
2013-06-08 11:53:00,68.0,57.0,29.95,NNW,333,2.0,8.0,67,0.00,,,0.07,,2013-06-08 15:53:00,
2013-06-08 12:03:00,69.0,57.0,29.96,NNW,339,1.0,5.0,66,0.00,,,0.07,,2013-06-08 16:03:00,
2013-06-08 12:12:00,69.0,57.0,29.96,NNW,339,1.0,5.0,66,0.00,,,0.07,,2013-06-08 16:12:00,
2013-06-08 12:23:00,68.0,57.0,29.96,NNW,338,4.0,10.0,67,0.00,,,0.05,,2013-06-08 16:23:00,
2013-06-08 12:33:00,68.0,57.0,29.95,North,349,5.0,9.0,67,0.00,,,0.05,,2013-06-08 16:33:00,
2013-06-08 12:42:00,68.0,57.0,29.95,North,349,5.0,9.0,67,0.00,,,0.05,,2013-06-08 16:42:00,
2013-06-08 12:53:00,69.0,58.0,29.96,NNW,348,5.0,8.0,68,0.00,,,0.05,,2013-06-08 16:53:00,
2013-06-08 13:02:00,70.0,59.0,29.96,NNW,332,4.0,9.0,67,0.00,,,0.05,,2013-06-08 17:02:00,
2013-06-08 13:12:00,70.0,59.0,29.96,NNW,332,4.0,9.0,67,0.00,,,0.05,,2013-06-08 17:12:00,
2013-06-08 13:23:00,71.0,58.0,29.96,NW,304,3.0,10.0,64,0.00,,,0.03,,2013-06-08 17:23:00,
2013-06-08 13:32:00,71.0,58.0,29.96,NNW,336,1.0,10.0,63,0.00,,,0.03,,2013-06-08 17:32:00,
2013-06-08 13:42:00,71.0,58.0,29.96,NNW,336,1.0,10.0,63,0.00,,,0.03,,2013-06-08 17:42:00,
2013-06-08 13:52:00,71.0,58.0,29.95,North,5,4.0,9.0,64,0.00,,,0.03,,2013-06-08 17:52:00,
2013-06-08 14:02:00,73.0,59.0,29.95,NW,323,2.0,9.0,62,0.00,,,0.03,,2013-06-08 18:02:00,
2013-06-08 14:12:00,73.0,59.0,29.95,NW,323,2.0,9.0,62,0.00,,,0.03,,2013-06-08 18:12:00,
2013-06-08 14:22:00,73.0,59.0,29.95,WNW,284,1.0,7.0,62,0.00,,,0.02,,2013-06-08 18:22:00,
2013-06-08 14:32:00,74.0,60.0,29.95,NW,321,1.0,8.0,62,0.00,,,0.02,,2013-06-08 18:32:00,
2013-06-08 14:42:00,74.0,60.0,29.95,NW,321,1.0,8.0,62,0.00,,,0.02,,2013-06-08 18:42:00,
2013-06-08 14:52:00,74.0,59.0,29.95,WSW,243,2.0,6.0,60,0.00,,,0.02,,2013-06-08 18:52:00,
2013-06-08 15:03:00,74.0,59.0,29.95,North,355,0.0,9.0,59,0.00,,,0.02,,2013-06-08 19:03:00,
2013-06-08 15:12:00,74.0,59.0,29.95,North,355,0.0,9.0,59,0.00,,,0.02,,2013-06-08 19:12:00,
2013-06-08 15:22:00,75.0,58.0,29.95,NNW,342,5.0,10.0,56,0.00,,,0.02,,2013-06-08 19:22:00,
2013-06-08 15:32:00,75.0,60.0,29.95,North,355,5.0,8.0,59,0.00,,,0.02,,2013-06-08 19:32:00,
2013-06-08 15:42:00,75.0,60.0,29.95,North,355,5.0,8.0,59,0.00,,,0.02,,2013-06-08 19:42:00,
2013-06-08 15:53:00,76.0,59.0,29.95,NNW,333,3.0,9.0,56,0.00,,,0.02,,2013-06-08 19:53:00,
2013-06-08 16:02:00,76.0,59.0,29.96,North,360,5.0,12.0,56,0.00,,,0.02,,2013-06-08 20:02:00,
2013-06-08 16:12:00,76.0,59.0,29.96,North,360,5.0,12.0,56,0.00,,,0.02,,2013-06-08 20:12:00,
2013-06-08 16:22:00,77.0,61.0,29.96,NNE,22,2.0,6.0,58,0.00,,,0.02,,2013-06-08 20:22:00,
2013-06-08 16:32:00,76.0,59.0,29.96,North,360,3.0,7.0,56,0.00,,,0.02,,2013-06-08 20:32:00,
2013-06-08 16:42:00,76.0,59.0,29.96,North,360,3.0,7.0,56,0.00,,,0.02,,2013-06-08 20:42:00,
2013-06-08 16:53:00,75.0,59.0,29.96,NNW,329,0.0,8.0,58,0.00,,,0.02,,2013-06-08 20:53:00,
2013-06-08 17:02:00,77.0,61.0,29.97,NNW,336,4.0,10.0,58,0.00,,,0.02,,2013-06-08 21:02:00,
2013-06-08 17:12:00,77.0,61.0,29.97,NNW,336,4.0,10.0,58,0.00,,,0.02,,2013-06-08 21:12:00,
2013-06-08 17:22:00,77.0,59.0,29.97,NW,325,5.0,9.0,53,0.00,,,0.02,,2013-06-08 21:22:00,
2013-06-08 17:33:00,78.0,59.0,29.97,WNW,297,1.0,8.0,53,0.00,,,0.02,,2013-06-08 21:33:00,
2013-06-08 17:43:00,78.0,59.0,29.97,WNW,297,1.0,8.0,53,0.00,,,0.02,,2013-06-08 21:43:00,
2013-06-08 17:53:00,77.0,59.0,29.98,NNW,346,1.0,10.0,53,0.00,,,0.02,,2013-06-08 21:53:00,
2013-06-08 18:02:00,78.0,59.0,29.98,NNW,348,4.0,10.0,53,0.00,,,0.02,,2013-06-08 22:02:00,
2013-06-08 18:12:00,77.0,58.0,29.98,NNW,342,5.0,10.0,52,0.00,,,0.02,,2013-06-08 22:12:00,
2013-06-08 18:23:00,77.0,58.0,29.98,NNW,342,5.0,10.0,52,0.00,,,0.02,,2013-06-08 22:23:00,
2013-06-08 18:33:00,77.0,59.0,29.98,NNW,333,6.0,10.0,54,0.00,,,0.02,,2013-06-08 22:33:00,
2013-06-08 18:42:00,77.0,59.0,29.98,NNW,343,4.0,10.0,54,0.00,,,0.02,,2013-06-08 22:42:00,
2013-06-08 18:53:00,77.0,59.0,29.98,NNW,343,4.0,10.0,54,0.00,,,0.02,,2013-06-08 22:53:00,
2013-06-08 19:02:00,77.0,59.0,29.99,NNW,336,5.0,7.0,54,0.00,,,0.02,,2013-06-08 23:02:00,
2013-06-08 19:12:00,76.0,59.0,29.99,North,5,3.0,7.0,55,0.00,,,0.01,,2013-06-08 23:12:00,
2013-06-08 19:22:00,76.0,59.0,29.99,North,5,3.0,7.0,55,0.00,,,0.01,,2013-06-08 23:22:00,
2013-06-08 19:32:00,76.0,58.0,30.00,NE,34,1.0,6.0,54,0.01,,,0.02,,2013-06-08 23:32:00,
2013-06-08 19:42:00,76.0,58.0,30.00,NE,34,1.0,6.0,54,0.01,,,0.02,,2013-06-08 23:42:00,
2013-06-08 19:52:00,75.0,58.0,30.01,NNE,21,3.0,5.0,56,0.01,,,0.02,,2013-06-08 23:52:00,
2013-06-08 20:02:00,74.0,58.0,30.01,NNE,20,2.0,4.0,58,0.01,,,0.02,,2013-06-09 00:02:00,
2013-06-08 20:12:00,74.0,58.0,30.01,NNE,20,2.0,4.0,58,0.01,,,0.02,,2013-06-09 00:12:00,
2013-06-08 20:22:00,74.0,59.0,30.01,NNE,20,1.0,4.0,59,0.02,,,0.03,,2013-06-09 00:22:00,
2013-06-08 20:32:00,73.0,58.0,30.02,NNE,26,3.0,6.0,60,0.04,,,0.06,,2013-06-09 00:32:00,
2013-06-08 20:42:00,73.0,58.0,30.02,NNE,26,3.0,6.0,60,0.04,,,0.06,,2013-06-09 00:42:00,
2013-06-08 20:52:00,72.0,58.0,30.02,NNE,26,1.0,5.0,62,0.04,,,0.06,,2013-06-09 00:52:00,
2013-06-08 21:02:00,71.0,57.0,30.03,NNE,26,0.0,3.0,62,0.04,,,0.06,,2013-06-09 01:02:00,
2013-06-08 21:12:00,70.0,57.0,30.03,NNE,27,0.0,3.0,63,0.03,,,0.05,,2013-06-09 01:12:00,
2013-06-08 21:22:00,70.0,57.0,30.03,NNE,27,0.0,3.0,63,0.03,,,0.05,,2013-06-09 01:22:00,
2013-06-08 21:32:00,70.0,57.0,30.04,NNE,27,0.0,3.0,63,0.00,,,0.05,,2013-06-09 01:32:00,
2013-06-08 21:42:00,70.0,57.0,30.04,NNE,27,0.0,3.0,63,0.00,,,0.05,,2013-06-09 01:42:00,
2013-06-08 21:52:00,69.0,56.0,30.05,NNE,27,1.0,2.0,64,0.00,,,0.05,,2013-06-09 01:52:00,
2013-06-08 22:02:00,69.0,57.0,30.06,NNE,27,0.0,3.0,65,0.00,,,0.05,,2013-06-09 02:02:00,
2013-06-08 22:12:00,69.0,57.0,30.06,NNE,27,0.0,3.0,65,0.00,,,0.05,,2013-06-09 02:12:00,
2013-06-08 22:22:00,68.0,56.0,30.07,NNE,28,0.0,1.0,66,0.00,,,0.05,,2013-06-09 02:22:00,
2013-06-08 22:32:00,67.0,56.0,30.08,NNE,28,0.0,0.0,67,0.00,,,0.05,,2013-06-09 02:32:00,
2013-06-08 22:42:00,67.0,56.0,30.08,NNE,28,0.0,0.0,67,0.00,,,0.05,,2013-06-09 02:42:00,
2013-06-08 22:52:00,68.0,57.0,30.08,NNE,28,0.0,2.0,67,0.00,,,0.05,,2013-06-09 02:52:00,
2013-06-08 23:02:00,67.0,56.0,30.08,NNE,28,0.0,0.0,68,0.00,,,0.05,,2013-06-09 03:02:00,
2013-06-08 23:12:00,67.0,56.0,30.08,NNE,28,0.0,0.0,68,0.00,,,0.05,,2013-06-09 03:12:00,
2013-06-08 23:22:00,66.0,56.0,30.09,NNE,28,0.0,0.0,70,0.00,,,0.05,,2013-06-09 03:22:00,
2013-06-08 23:33:00,65.0,56.0,30.09,NNE,28,0.0,0.0,72,0.00,,,0.05,,2013-06-09 03:33:00,
2013-06-08 23:43:00,65.0,56.0,30.09,NNE,28,0.0,0.0,72,0.00,,,0.05,,2013-06-09 03:43:00,
2013-06-08 23:53:00,64.0,56.0,30.09,NNE,28,0.0,2.0,74,0.00,,,0.05,,2013-06-09 03:53:00,